createdAt,value
2023-03-12T00:01:21.780Z,51.12
2023-03-12T00:03:49.153Z,51.05
2023-03-12T00:06:17.420Z,51.13
2023-03-12T00:08:44.099Z,50.80
2023-03-12T00:11:16.503Z,50.98
2023-03-12T00:13:43.493Z,50.82
2023-03-12T00:16:12.358Z,51.12
2023-03-12T00:18:39.268Z,50.77
2023-03-12T00:21:06.478Z,50.78
2023-03-12T00:23:34.066Z,51.00
2023-03-12T00:26:05.522Z,51.08
2023-03-12T00:28:32.408Z,50.81
2023-03-12T00:30:59.028Z,50.88
2023-03-12T00:33:26.570Z,51.10
2023-03-12T00:35:55.785Z,51.01
2023-03-12T00:38:22.946Z,51.17
2023-03-12T00:40:49.797Z,51.13
2023-03-12T00:43:16.446Z,51.59
2023-03-12T00:45:43.155Z,50.85
2023-03-12T00:48:09.856Z,51.42
2023-03-12T00:50:36.610Z,51.08
2023-03-12T00:53:03.684Z,51.35
2023-03-12T00:55:30.846Z,51.10
2023-03-12T00:57:57.653Z,51.46
2023-03-12T01:00:24.499Z,50.93
2023-03-12T01:02:51.190Z,51.37
2023-03-12T01:05:18.087Z,51.01
2023-03-12T01:07:44.769Z,51.39
2023-03-12T01:10:14.330Z,51.28
2023-03-12T01:12:41.706Z,51.12
2023-03-12T01:15:10.383Z,51.01
2023-03-12T01:17:37.072Z,51.27
2023-03-12T01:20:04.155Z,51.54
2023-03-12T01:22:30.740Z,51.63
2023-03-12T01:24:57.537Z,51.67
2023-03-12T01:27:24.317Z,51.73
2023-03-12T01:29:50.991Z,51.88
2023-03-12T01:32:17.863Z,51.96
2023-03-12T01:34:45.069Z,51.81
2023-03-12T01:37:11.697Z,51.94
2023-03-12T01:39:38.654Z,52.13
2023-03-12T01:42:05.873Z,52.13
2023-03-12T01:45:02.341Z,52.08
2023-03-12T01:47:34.042Z,52.65
2023-03-12T01:50:06.163Z,52.41
2023-03-12T01:52:36.689Z,52.39
2023-03-12T01:55:07.884Z,52.80
2023-03-12T01:57:44.430Z,52.87
2023-03-12T02:00:19.150Z,52.66
2023-03-12T02:02:47.270Z,52.95
2023-03-12T02:05:24.655Z,53.06
2023-03-12T02:07:51.383Z,52.91
2023-03-12T02:10:18.023Z,52.92
2023-03-12T02:12:44.770Z,53.01
2023-03-12T02:15:11.780Z,53.21
2023-03-12T02:17:40.419Z,53.07
2023-03-12T02:20:16.309Z,53.29
2023-03-12T02:22:49.842Z,53.17
2023-03-12T02:25:35.488Z,53.28
2023-03-12T02:28:04.396Z,53.03
2023-03-12T02:30:32.049Z,53.27
2023-03-12T02:33:02.451Z,53.49
2023-03-12T02:35:29.200Z,53.54
2023-03-12T02:37:56.918Z,53.55
2023-03-12T02:40:41.858Z,53.78
2023-03-12T02:43:09.763Z,53.99
2023-03-12T02:45:38.024Z,53.62
2023-03-12T02:48:08.544Z,53.42
2023-03-12T02:50:35.559Z,53.80
2023-03-12T02:53:03.005Z,53.97
2023-03-12T02:55:29.631Z,54.09
2023-03-12T02:57:56.292Z,54.09
2023-03-12T03:00:23.344Z,54.13
2023-03-12T03:02:52.301Z,53.84
2023-03-12T03:05:20.461Z,54.27
2023-03-12T03:07:47.432Z,54.19
2023-03-12T03:10:15.580Z,54.04
2023-03-12T03:12:42.321Z,54.53
2023-03-12T03:15:10.055Z,54.37
2023-03-12T03:17:36.839Z,54.28
2023-03-12T03:20:11.008Z,54.70
2023-03-12T03:22:38.274Z,54.59
2023-03-12T03:25:06.476Z,54.85
2023-03-12T03:27:33.503Z,54.77
2023-03-12T03:30:00.203Z,54.85
2023-03-12T03:32:27.561Z,55.05
2023-03-12T03:34:54.218Z,55.14
2023-03-12T03:37:20.956Z,55.08
2023-03-12T03:39:47.722Z,55.15
2023-03-12T03:42:14.480Z,55.55
2023-03-12T03:44:41.990Z,55.35
2023-03-12T03:47:08.757Z,55.46
2023-03-12T03:49:35.410Z,55.49
2023-03-12T03:52:02.327Z,55.44
2023-03-12T03:54:33.942Z,55.29
2023-03-12T03:57:01.214Z,55.52
2023-03-12T03:59:28.067Z,55.53
2023-03-12T04:01:54.790Z,55.84
2023-03-12T04:04:21.653Z,55.77
2023-03-12T04:06:48.689Z,55.92
2023-03-12T04:09:15.568Z,55.95
2023-03-12T04:11:42.437Z,55.80
2023-03-12T04:14:11.622Z,55.88
2023-03-12T04:16:40.778Z,55.87
2023-03-12T04:19:07.461Z,55.93
2023-03-12T04:21:34.434Z,56.14
2023-03-12T04:24:01.054Z,56.70
2023-03-12T04:26:31.568Z,56.65
2023-03-12T04:29:00.652Z,56.69
2023-03-12T04:31:27.300Z,56.49
2023-03-12T04:33:54.277Z,56.79
2023-03-12T04:36:23.773Z,56.99
2023-03-12T04:38:52.345Z,56.75
2023-03-12T04:41:24.193Z,56.94
2023-03-12T04:43:56.768Z,56.98
2023-03-12T04:46:23.831Z,56.99
2023-03-12T04:48:50.860Z,57.38
2023-03-12T04:51:18.088Z,57.53
2023-03-12T04:53:44.905Z,57.33
2023-03-12T04:56:12.966Z,57.46
2023-03-12T04:58:41.126Z,57.54
2023-03-12T05:01:07.852Z,57.75
2023-03-12T05:03:35.444Z,57.58
2023-03-12T05:06:02.317Z,58.00
2023-03-12T05:08:29.412Z,58.03
2023-03-12T05:10:56.882Z,58.07
2023-03-12T05:13:23.574Z,57.85
2023-03-12T05:15:54.505Z,57.93
2023-03-12T05:18:21.819Z,58.31
2023-03-12T05:20:59.049Z,58.06
2023-03-12T05:23:26.165Z,58.45
2023-03-12T05:25:52.977Z,58.56
2023-03-12T05:28:20.237Z,58.61
2023-03-12T05:30:47.170Z,58.57
2023-03-12T05:33:14.415Z,58.80
2023-03-12T05:35:41.101Z,58.81
2023-03-12T05:38:07.933Z,58.60
2023-03-12T05:40:34.563Z,58.87
2023-03-12T05:43:01.399Z,58.67
2023-03-12T05:45:29.435Z,58.97
2023-03-12T05:47:58.797Z,58.97
2023-03-12T05:50:27.772Z,58.98
2023-03-12T05:52:54.589Z,59.13
2023-03-12T05:55:21.373Z,59.48
2023-03-12T05:57:48.164Z,59.55
2023-03-12T06:00:15.593Z,59.56
2023-03-12T06:02:49.136Z,59.70
2023-03-12T06:05:16.058Z,59.59
2023-03-12T06:07:43.027Z,59.57
2023-03-12T06:10:10.673Z,59.77
2023-03-12T06:12:37.326Z,59.70
2023-03-12T06:15:05.376Z,59.77
2023-03-12T06:17:32.489Z,59.68
2023-03-12T06:19:59.474Z,60.16
2023-03-12T06:22:26.690Z,59.87
2023-03-12T06:24:53.669Z,60.04
2023-03-12T06:27:20.505Z,59.92
2023-03-12T06:29:47.312Z,60.20
2023-03-12T06:32:14.343Z,60.35
2023-03-12T06:34:41.185Z,60.41
2023-03-12T06:37:07.890Z,60.45
2023-03-12T06:39:34.761Z,60.27
2023-03-12T06:42:01.414Z,60.44
2023-03-12T06:44:28.104Z,60.77
2023-03-12T06:46:55.232Z,60.45
2023-03-12T06:49:22.333Z,60.81
2023-03-12T06:51:49.049Z,60.60
2023-03-12T06:54:16.021Z,60.59
2023-03-12T06:56:42.650Z,60.77
2023-03-12T06:59:09.385Z,60.74
2023-03-12T07:01:35.993Z,60.58
2023-03-12T07:04:02.719Z,60.95
2023-03-12T07:06:29.315Z,60.68
2023-03-12T07:08:56.035Z,61.10
2023-03-12T07:11:22.681Z,60.79
2023-03-12T07:13:49.394Z,62.25
2023-03-12T07:16:16.169Z,62.76
2023-03-12T07:18:42.983Z,63.68
2023-03-12T07:21:09.559Z,64.08
2023-03-12T07:23:36.278Z,64.51
2023-03-12T07:26:05.363Z,65.00
2023-03-12T07:28:32.110Z,65.45
2023-03-12T07:31:02.881Z,66.18
2023-03-12T07:33:30.038Z,66.03
2023-03-12T07:35:56.884Z,66.07
2023-03-12T07:38:23.787Z,65.93
2023-03-12T07:40:51.973Z,66.42
2023-03-12T07:43:20.469Z,66.19
2023-03-12T07:45:50.797Z,66.25
2023-03-12T07:48:19.795Z,66.27
2023-03-12T07:50:46.539Z,66.06
2023-03-12T07:53:13.252Z,66.32
2023-03-12T07:55:39.941Z,66.90
2023-03-12T07:58:06.864Z,67.02
2023-03-12T08:00:33.657Z,67.43
2023-03-12T08:03:00.450Z,66.67
2023-03-12T08:05:27.317Z,66.74
2023-03-12T08:07:54.430Z,67.27
2023-03-12T08:10:23.513Z,67.33
2023-03-12T08:12:50.395Z,66.64
2023-03-12T08:15:17.212Z,67.16
2023-03-12T08:17:44.195Z,67.31
2023-03-12T08:20:11.867Z,67.29
2023-03-12T08:22:39.142Z,66.81
2023-03-12T08:25:06.504Z,66.58
2023-03-12T08:27:34.013Z,66.60
2023-03-12T08:30:00.734Z,66.39
2023-03-12T08:32:27.485Z,66.38
2023-03-12T08:34:54.196Z,66.31
2023-03-12T08:37:20.886Z,66.16
2023-03-12T08:39:47.544Z,65.28
2023-03-12T08:42:14.222Z,65.24
2023-03-12T08:44:40.929Z,65.23
2023-03-12T08:47:07.610Z,65.00
2023-03-12T08:49:34.356Z,65.03
2023-03-12T08:52:01.188Z,64.96
2023-03-12T08:54:27.874Z,65.01
2023-03-12T08:56:54.567Z,63.80
2023-03-12T08:59:22.400Z,63.99
2023-03-12T09:01:49.375Z,64.04
2023-03-12T09:04:16.643Z,64.21
2023-03-12T09:06:43.499Z,64.34
2023-03-12T09:09:10.199Z,65.00
2023-03-12T09:11:39.738Z,65.36
2023-03-12T09:16:53.865Z,64.99
2023-03-12T09:19:21.081Z,64.28
2023-03-12T09:21:47.741Z,63.43
2023-03-12T09:24:14.483Z,62.13
2023-03-12T09:26:41.231Z,61.57
2023-03-12T09:29:07.823Z,61.65
2023-03-12T09:31:36.337Z,61.55
2023-03-12T09:34:03.719Z,61.08
2023-03-12T09:36:30.898Z,61.00
2023-03-12T09:38:57.499Z,60.50
2023-03-12T09:41:27.885Z,60.62
2023-03-12T09:43:59.103Z,59.84
2023-03-12T09:46:53.844Z,59.91
2023-03-12T09:49:34.342Z,59.80
2023-03-12T09:52:03.604Z,60.91
2023-03-12T09:54:50.002Z,61.13
2023-03-12T09:57:25.242Z,61.31
2023-03-12T09:59:52.488Z,61.44
2023-03-12T10:02:34.161Z,60.52
2023-03-12T10:05:07.220Z,60.17
2023-03-12T10:07:36.479Z,59.58
2023-03-12T10:10:09.014Z,59.26
2023-03-12T10:12:47.420Z,59.33
2023-03-12T10:15:14.222Z,59.76
2023-03-12T10:17:55.996Z,59.65
2023-03-12T10:20:32.737Z,59.29
2023-03-12T10:23:06.784Z,58.17
2023-03-12T10:25:57.802Z,58.20
2023-03-12T10:28:36.654Z,58.54
2023-03-12T10:31:06.617Z,58.91
2023-03-12T10:34:01.867Z,59.83
2023-03-12T10:36:30.094Z,60.09
2023-03-12T10:38:56.716Z,60.97
2023-03-12T10:41:26.286Z,61.47
2023-03-12T10:43:53.030Z,61.76
2023-03-12T10:46:56.215Z,61.85
2023-03-12T10:49:23.890Z,61.06
2023-03-12T10:51:57.860Z,59.72
2023-03-12T10:54:33.838Z,60.29
2023-03-12T10:57:01.116Z,60.29
2023-03-12T10:59:33.724Z,59.39
2023-03-12T11:02:01.704Z,58.98
2023-03-12T11:04:32.263Z,58.19
2023-03-12T11:07:27.739Z,58.03
2023-03-12T11:10:06.589Z,57.93
2023-03-12T11:12:36.037Z,57.22
2023-03-12T11:15:21.972Z,56.57
2023-03-12T11:17:48.865Z,55.47
2023-03-12T11:20:26.221Z,55.54
2023-03-12T11:22:52.888Z,56.11
2023-03-12T11:25:28.234Z,56.33
2023-03-12T11:27:57.183Z,56.48
2023-03-12T11:30:28.758Z,57.13
2023-03-12T11:32:58.113Z,57.46
2023-03-12T11:35:34.201Z,55.93
2023-03-12T11:38:06.585Z,55.70
2023-03-12T11:40:52.024Z,54.59
2023-03-12T11:43:43.992Z,54.71
2023-03-12T11:46:26.082Z,54.74
2023-03-12T11:48:58.610Z,53.57
2023-03-12T11:51:31.166Z,54.02
2023-03-12T11:54:19.945Z,53.89
2023-03-12T11:56:53.946Z,53.34
2023-03-12T11:59:36.509Z,53.17
2023-03-12T12:02:18.589Z,53.24
2023-03-12T12:05:07.202Z,51.65
2023-03-12T12:07:46.045Z,52.43
2023-03-12T12:10:24.978Z,54.87
2023-03-12T12:13:23.744Z,54.88
2023-03-12T12:15:53.398Z,52.76
2023-03-12T12:18:42.835Z,52.58
2023-03-12T12:21:32.077Z,52.89
2023-03-12T12:24:26.701Z,51.64
2023-03-12T12:27:03.668Z,50.65
2023-03-12T12:29:53.734Z,51.14
2023-03-12T12:32:27.334Z,50.69
2023-03-12T12:35:23.515Z,48.15
2023-03-12T12:37:54.425Z,48.56
2023-03-12T12:40:21.954Z,48.45
2023-03-12T12:43:11.615Z,47.80
2023-03-12T12:45:39.720Z,48.06
2023-03-12T12:48:23.357Z,48.45
2023-03-12T12:50:52.145Z,48.44
2023-03-12T12:53:20.558Z,48.78
2023-03-12T12:55:50.510Z,48.19
2023-03-12T12:58:37.321Z,47.52
2023-03-12T13:01:04.386Z,47.31
2023-03-12T13:03:31.138Z,47.60
2023-03-12T13:06:03.337Z,47.69
2023-03-12T13:08:59.177Z,46.68
2023-03-12T13:11:31.595Z,46.86
2023-03-12T13:14:04.643Z,45.64
2023-03-12T13:16:36.482Z,46.50
2023-03-12T13:19:08.954Z,47.04
2023-03-12T13:21:40.701Z,46.85
2023-03-12T13:24:46.380Z,46.79
2023-03-12T13:27:25.910Z,46.71
2023-03-12T13:29:57.221Z,46.93
2023-03-12T13:32:37.693Z,46.05
2023-03-12T13:35:13.405Z,46.81
2023-03-12T13:37:46.238Z,46.88
2023-03-12T13:40:31.290Z,48.14
2023-03-12T13:43:16.421Z,48.69
2023-03-12T13:46:06.662Z,48.97
2023-03-12T13:48:35.031Z,48.58
2023-03-12T13:51:11.967Z,49.21
2023-03-12T13:53:40.586Z,49.01
2023-03-12T13:56:11.868Z,49.33
2023-03-12T13:58:54.282Z,49.98
2023-03-12T14:01:22.705Z,50.44
2023-03-12T14:03:53.576Z,49.40
2023-03-12T14:06:21.706Z,49.10
2023-03-12T14:09:06.858Z,48.18
2023-03-12T14:12:01.066Z,48.31
2023-03-12T14:14:48.032Z,48.22
2023-03-12T14:17:20.534Z,47.55
2023-03-12T14:19:50.883Z,46.76
2023-03-12T14:22:22.752Z,47.68
2023-03-12T14:24:58.936Z,46.87
2023-03-12T14:27:31.374Z,46.99
2023-03-12T14:30:11.554Z,46.80
2023-03-12T14:32:38.506Z,46.90
2023-03-12T14:35:18.203Z,47.11
2023-03-12T14:38:12.048Z,48.23
2023-03-12T14:40:46.789Z,48.68
2023-03-12T14:43:30.901Z,48.11
2023-03-12T14:46:00.505Z,47.88
2023-03-12T14:48:32.570Z,48.20
2023-03-12T14:51:00.740Z,48.52
2023-03-12T14:53:31.738Z,48.89
2023-03-12T14:56:29.192Z,47.45
2023-03-12T14:58:56.969Z,47.26
2023-03-12T15:01:27.039Z,47.00
2023-03-12T15:03:57.029Z,47.31
2023-03-12T15:06:29.727Z,48.23
2023-03-12T15:08:57.202Z,49.07
2023-03-12T15:11:25.990Z,49.00
2023-03-12T15:13:54.188Z,49.27
2023-03-12T15:16:21.237Z,49.37
2023-03-12T15:18:50.027Z,49.35
2023-03-12T15:21:17.017Z,49.59
2023-03-12T15:23:45.989Z,48.63
2023-03-12T15:26:12.500Z,47.87
2023-03-12T15:28:39.794Z,47.01
2023-03-12T15:31:13.884Z,47.00
2023-03-12T15:33:41.858Z,45.75
2023-03-12T15:36:14.948Z,46.70
2023-03-12T15:38:50.170Z,46.79
2023-03-12T15:41:21.426Z,47.60
2023-03-12T15:43:54.642Z,48.43
2023-03-12T15:46:22.107Z,47.78
2023-03-12T15:48:51.541Z,47.68
2023-03-12T15:51:35.874Z,47.73
2023-03-12T15:54:06.503Z,46.68
2023-03-12T15:56:34.851Z,46.21
2023-03-12T15:59:04.479Z,46.21
2023-03-12T16:01:44.759Z,45.93
2023-03-12T16:04:12.153Z,45.40
2023-03-12T16:06:38.994Z,46.39
2023-03-12T16:09:06.139Z,46.24
2023-03-12T16:11:35.105Z,47.12
2023-03-12T16:14:03.842Z,47.98
2023-03-12T16:16:30.814Z,48.15
2023-03-12T16:18:57.861Z,48.28
2023-03-12T16:21:24.659Z,47.88
2023-03-12T16:23:51.342Z,47.88
2023-03-12T16:26:18.196Z,47.02
2023-03-12T16:28:45.569Z,47.28
2023-03-12T16:31:13.503Z,47.82
2023-03-12T16:33:40.781Z,47.91
2023-03-12T16:36:15.810Z,48.23
2023-03-12T16:38:44.291Z,48.22
2023-03-12T16:41:16.897Z,48.88
2023-03-12T16:43:47.269Z,49.42
2023-03-12T16:46:19.593Z,48.86
2023-03-12T16:48:50.944Z,49.52
2023-03-12T16:51:17.632Z,49.24
2023-03-12T16:53:44.789Z,49.38
2023-03-12T16:56:20.656Z,50.24
2023-03-12T16:58:49.603Z,50.37
2023-03-12T17:01:19.152Z,50.62
2023-03-12T17:03:49.381Z,50.79
2023-03-12T17:06:18.613Z,51.59
2023-03-12T17:08:45.448Z,51.68
2023-03-12T17:11:15.133Z,52.32
2023-03-12T17:13:42.143Z,52.13
2023-03-12T17:16:11.624Z,52.94
2023-03-12T17:18:39.608Z,52.83
2023-03-12T17:21:07.022Z,53.28
2023-03-12T17:23:33.966Z,53.53
2023-03-12T17:26:00.677Z,54.39
2023-03-12T17:28:27.600Z,54.47
2023-03-12T17:30:54.255Z,54.58
2023-03-12T17:33:21.026Z,55.07
2023-03-12T17:35:56.971Z,55.87
2023-03-12T17:38:24.037Z,56.41
2023-03-12T17:40:50.648Z,57.52
2023-03-12T17:43:17.311Z,58.13
2023-03-12T17:45:43.984Z,58.72
2023-03-12T17:48:10.723Z,58.91
2023-03-12T17:50:37.509Z,59.12
2023-03-12T17:53:04.314Z,59.09
2023-03-12T17:55:31.010Z,59.60
2023-03-12T17:57:57.679Z,59.83
2023-03-12T18:00:24.382Z,59.59
2023-03-12T18:02:51.089Z,59.74
2023-03-12T18:05:17.952Z,59.92
2023-03-12T18:07:47.295Z,59.99
2023-03-12T18:10:14.118Z,59.64
2023-03-12T18:12:41.000Z,59.27
2023-03-12T18:15:10.923Z,58.74
2023-03-12T18:17:37.636Z,58.82
2023-03-12T18:20:09.890Z,58.32
2023-03-12T18:22:38.103Z,57.98
2023-03-12T18:25:05.694Z,58.01
2023-03-12T18:27:32.421Z,57.82
2023-03-12T18:29:59.058Z,57.70
2023-03-12T18:32:25.827Z,57.29
2023-03-12T18:34:53.289Z,57.25
2023-03-12T18:37:20.783Z,57.33
2023-03-12T18:39:48.027Z,57.15
2023-03-12T18:42:14.690Z,56.76
2023-03-12T18:44:41.329Z,57.01
2023-03-12T18:47:08.011Z,56.66
2023-03-12T18:49:34.698Z,56.56
2023-03-12T18:52:01.526Z,56.86
2023-03-12T18:54:28.421Z,56.68
2023-03-12T18:56:55.187Z,56.63
2023-03-12T18:59:21.872Z,56.71
2023-03-12T19:01:48.778Z,56.48
2023-03-12T19:04:20.008Z,56.31
2023-03-12T19:06:51.273Z,56.20
2023-03-12T19:09:18.925Z,55.95
2023-03-12T19:11:48.598Z,55.88
2023-03-12T19:14:15.496Z,56.20
2023-03-12T19:16:42.483Z,55.87
2023-03-12T19:19:09.233Z,56.18
2023-03-12T19:21:35.870Z,55.77
2023-03-12T19:24:02.608Z,55.79
2023-03-12T19:26:29.337Z,55.79
2023-03-12T19:28:56.074Z,55.99
2023-03-12T19:31:22.844Z,55.68
2023-03-12T19:33:49.642Z,55.75
2023-03-12T19:36:16.359Z,55.85
2023-03-12T19:38:43.201Z,55.72
2023-03-12T19:41:09.883Z,55.92
2023-03-12T19:43:37.253Z,56.01
2023-03-12T19:46:04.514Z,55.99
2023-03-12T19:48:31.430Z,55.60
2023-03-12T19:50:58.120Z,55.64
2023-03-12T19:53:24.991Z,55.73
2023-03-12T19:55:51.934Z,55.92
2023-03-12T19:58:18.775Z,55.67
2023-03-12T20:00:45.432Z,55.59
2023-03-12T20:03:12.177Z,55.78
2023-03-12T20:05:43.019Z,55.65
2023-03-12T20:08:11.150Z,55.80
2023-03-12T20:10:38.817Z,55.49
2023-03-12T20:13:05.650Z,55.69
2023-03-12T20:15:32.292Z,55.75
2023-03-12T20:17:59.093Z,55.40
2023-03-12T20:20:25.818Z,55.59
2023-03-12T20:22:52.549Z,55.77
2023-03-12T20:25:19.278Z,55.52
2023-03-12T20:27:47.126Z,55.78
2023-03-12T20:30:14.099Z,55.48
2023-03-12T20:32:42.607Z,55.72
2023-03-12T20:35:09.910Z,55.66
2023-03-12T20:37:36.657Z,55.61
2023-03-12T20:40:05.165Z,55.55
2023-03-12T20:42:31.745Z,55.38
2023-03-12T20:44:58.536Z,55.61
2023-03-12T20:47:25.259Z,55.24
2023-03-12T20:49:52.036Z,55.44
2023-03-12T20:52:18.751Z,55.28
2023-03-12T20:54:45.409Z,55.33
2023-03-12T20:57:12.263Z,55.56
2023-03-12T20:59:38.873Z,55.24
2023-03-12T21:02:05.593Z,55.61
2023-03-12T21:04:32.214Z,55.29
2023-03-12T21:06:58.859Z,55.55
2023-03-12T21:09:25.563Z,55.32
2023-03-12T21:11:52.293Z,55.27
2023-03-12T21:14:18.984Z,55.26
2023-03-12T21:16:45.771Z,55.54
2023-03-12T21:19:12.425Z,55.48
2023-03-12T21:21:39.146Z,55.43
2023-03-12T21:24:05.897Z,55.15
2023-03-12T21:26:32.528Z,55.09
2023-03-12T21:28:59.199Z,55.25
2023-03-12T21:31:28.713Z,55.21
2023-03-12T21:33:56.533Z,55.18
2023-03-12T21:36:23.732Z,55.08
2023-03-12T21:38:51.744Z,55.15
2023-03-12T21:41:19.277Z,55.10
2023-03-12T21:43:46.702Z,55.53
2023-03-12T21:46:15.664Z,54.99
2023-03-12T21:48:46.987Z,55.44
2023-03-12T21:51:15.946Z,55.42
2023-03-12T21:53:42.755Z,55.43
2023-03-12T21:56:10.139Z,55.55
2023-03-12T21:58:37.325Z,55.53
2023-03-12T22:01:08.942Z,55.27
2023-03-12T22:03:36.451Z,55.39
2023-03-12T22:06:03.521Z,55.14
2023-03-12T22:08:30.604Z,55.55
2023-03-12T22:10:57.555Z,55.45
2023-03-12T22:13:24.282Z,55.60
2023-03-12T22:15:56.210Z,55.60
2023-03-12T22:18:23.377Z,55.41
2023-03-12T22:21:01.583Z,55.47
2023-03-12T22:23:28.660Z,55.30
2023-03-12T22:25:55.773Z,55.62
2023-03-12T22:28:25.673Z,55.26
2023-03-12T22:31:00.043Z,55.35
2023-03-12T22:33:27.694Z,55.16
2023-03-12T22:35:54.879Z,55.55
2023-03-12T22:38:22.573Z,55.62
2023-03-12T22:40:49.506Z,55.72
2023-03-12T22:43:16.434Z,55.68
2023-03-12T22:45:43.181Z,55.49
2023-03-12T22:48:09.977Z,55.42
2023-03-12T22:50:36.604Z,55.40
2023-03-12T22:53:03.496Z,55.66
2023-03-12T22:55:30.208Z,55.52
2023-03-12T22:57:56.916Z,55.72
2023-03-12T23:00:23.905Z,55.47
2023-03-12T23:02:50.873Z,55.71
2023-03-12T23:05:17.626Z,55.54
2023-03-12T23:07:44.612Z,55.79
2023-03-12T23:10:11.665Z,55.57
2023-03-12T23:12:38.419Z,55.56
2023-03-12T23:15:06.295Z,56.01
2023-03-12T23:17:32.928Z,55.60
2023-03-12T23:19:59.592Z,55.76
2023-03-12T23:22:26.293Z,55.76
2023-03-12T23:24:53.271Z,55.70
2023-03-12T23:27:20.034Z,56.14
2023-03-12T23:29:46.733Z,55.70
2023-03-12T23:32:13.441Z,55.86
2023-03-12T23:34:40.058Z,55.87
2023-03-12T23:37:07.287Z,56.10
2023-03-12T23:39:42.160Z,56.04
2023-03-12T23:42:15.103Z,56.32
2023-03-12T23:44:41.725Z,55.92
2023-03-12T23:47:08.446Z,55.98
2023-03-12T23:49:35.180Z,56.07
2023-03-12T23:52:01.849Z,56.42
2023-03-12T23:54:28.495Z,56.39
2023-03-12T23:56:56.236Z,56.07
2023-03-12T23:59:22.803Z,56.35
